Language selection

My Weather Profile Weather Topics  | 

Lake Nipigon: Past 24 Hour Conditions

 

Welcome Island

07:00 PM EST 05 February 2023
Disclaimer

This table is a summary of hourly weather conditions for the past 24 hours.
Please note that these observations might not always be representative of weather conditions over their associated marine area.

Date / Time
(EST)
Wind(knots) Conditions Visibility(km) Pressure(kPa) Air tempC) Relative humidity(%) Dew pointC) Wind Chill
05 February 2023
19:00 NNW 6 N/A N/A 102.0 -10 67 -15 -15
18:00 NNW 8 N/A N/A 101.9 -9 70 -14 -16
17:00 NNW 7 N/A N/A 101.9 -9 63 -14 -15
16:00 NNW 8 N/A N/A 101.8 -9 62 -15 -15
15:00 NW 8 N/A N/A 101.7 -9 59 -16 -15
14:00 NW 7 N/A N/A 101.7 -9 61 -15 -15
13:00 NNW 5 N/A N/A 101.7 -10 61 -16 -15
12:00 N 9 N/A N/A 101.7 -10 65 -16 -17
11:00 NNE 9 N/A N/A 101.6 -11 71 -15 -18
10:00 NNE 13 N/A N/A 101.6 -12 75 -15 -21
9:00 NNE 12 N/A N/A 101.5 -12 77 -15 -21
8:00 N 11 N/A N/A 101.5 -12 80 -15 -21
7:00 N 12 N/A N/A 101.4 -12 79 -15 -21
6:00 NNE 12 N/A N/A 101.3 -12 76 -15 -20
5:00 NE 12 N/A N/A 101.2 -11 76 -15 -20
4:00 NE 11 N/A N/A 101.1 -11 73 -14 -19
3:00 ENE 11 N/A N/A 101.1 -10 75 -14 -18
2:00 ENE 8 N/A N/A 101.1 -10 82 -13 -17
1:00 ENE 12 N/A N/A 101.1 -10 85 -12 -18
0:00 NE 11 N/A N/A 101.1 -10 85 -12 -18
04 February 2023
23:00 ENE 8 N/A N/A 101.1 -10 85 -12 -17
22:00 NE 10 N/A N/A 101.1 -10 90 -11 -17
21:00 N 10 N/A N/A 101.0 -10 87 -11 -17
20:00 NNW 4 N/A N/A 101.1 -10 85 -12 -14
19:00 WSW 3 N/A N/A 101.0 -10 64 -15 -13

Zoom-in to make a selection

Map of Great Lakes - Lake Superior marine weather areas Mid Superior - 45001 East Superior - 45004 West Superior - 45006 Slate Island - 45136 Lake Of the Woods - 45148 Kenora Airport Royal Island Armstrong Airport Caribou Island Marathon Airport Pukaskwa National Park Thunder Bay Airport Welcome Island Little Flatland Island Sault Ste. Marie Airport Wawa Airport
Legend:
buoy Buoy
land station Land Station

Great Lakes - Lake Superior Area

Another Region

What we are doing

Date modified: